Metar z połowy godziny Komunikat METAR ze strony awiacja.imgw.pl Metar G30 EPKT METAR EPKT 200330Z 27009KT 8000 NSC 02/01 Q1017 =